sensor_id;sensor_type;location;lat;lon;timestamp;pressure;altitude;pressure_sealevel;temperature;humidity
58295;BME280;45705;55.592;37.460;2023-01-25T00:02:02;100652.63;;;-0.19;100.00
58295;BME280;45705;55.592;37.460;2023-01-25T00:04:28;100617.38;;;-0.43;100.00
58295;BME280;45705;55.592;37.460;2023-01-25T00:06:54;100654.06;;;-0.16;100.00
58295;BME280;45705;55.592;37.460;2023-01-25T00:09:21;100645.72;;;0.20;100.00
58295;BME280;45705;55.592;37.460;2023-01-25T00:11:47;100639.44;;;-0.21;100.00
58295;BME280;45705;55.592;37.460;2023-01-25T00:14:14;100644.19;;;-0.16;100.00
58295;BME280;45705;55.592;37.460;2023-01-25T00:16:40;100632.53;;;-0.02;100.00
58295;BME280;45705;55.592;37.460;2023-01-25T00:19:07;100630.81;;;-0.16;100.00
58295;BME280;45705;55.592;37.460;2023-01-25T00:21:34;100628.56;;;-0.19;100.00
58295;BME280;45705;55.592;37.460;2023-01-25T00:24:00;100629.19;;;-0.17;100.00
58295;BME280;45705;55.592;37.460;2023-01-25T00:26:28;100628.34;;;-0.24;100.00
58295;BME280;45705;55.592;37.460;2023-01-25T00:28:55;100633.34;;;-0.01;100.00
58295;BME280;45705;55.592;37.460;2023-01-25T00:37:12;100610.44;;;-0.30;100.00
58295;BME280;45705;55.592;37.460;2023-01-25T00:39:39;100617.50;;;-0.03;99.83
58295;BME280;45705;55.592;37.460;2023-01-25T00:42:09;100612.88;;;-0.35;100.00
58295;BME280;45705;55.592;37.460;2023-01-25T00:44:36;100605.72;;;-0.28;100.00
58295;BME280;45705;55.592;37.460;2023-01-25T00:47:02;100595.81;;;-0.34;100.00
58295;BME280;45705;55.592;37.460;2023-01-25T00:49:29;100613.88;;;-0.43;100.00
58295;BME280;45705;55.592;37.460;2023-01-25T00:51:57;100596.66;;;-0.27;100.00
58295;BME280;45705;55.592;37.460;2023-01-25T00:54:23;100583.91;;;-0.38;100.00
58295;BME280;45705;55.592;37.460;2023-01-25T00:56:49;100603.97;;;-0.56;100.00
58295;BME280;45705;55.592;37.460;2023-01-25T00:59:19;100600.75;;;-0.31;100.00
58295;BME280;45705;55.592;37.460;2023-01-25T01:01:45;100601.44;;;-0.03;100.00
58295;BME280;45705;55.592;37.460;2023-01-25T01:04:11;100585.81;;;-0.19;100.00
58295;BME280;45705;55.592;37.460;2023-01-25T01:06:40;100595.06;;;-0.08;100.00
58295;BME280;45705;55.592;37.460;2023-01-25T01:09:11;100590.13;;;-0.05;100.00
58295;BME280;45705;55.592;37.460;2023-01-25T01:11:37;100594.25;;;-0.09;100.00
58295;BME280;45705;55.592;37.460;2023-01-25T01:14:03;100594.22;;;-0.22;100.00
58295;BME280;45705;55.592;37.460;2023-01-25T01:16:30;100596.06;;;-0.16;100.00
58295;BME280;45705;55.592;37.460;2023-01-25T01:18:56;100592.16;;;-0.27;100.00
58295;BME280;45705;55.592;37.460;2023-01-25T01:21:22;100596.25;;;-0.24;100.00
58295;BME280;45705;55.592;37.460;2023-01-25T01:23:48;100582.28;;;-0.33;100.00
58295;BME280;45705;55.592;37.460;2023-01-25T01:26:15;100587.63;;;-0.20;100.00
58295;BME280;45705;55.592;37.460;2023-01-25T01:28:41;100578.13;;;-0.35;100.00
58295;BME280;45705;55.592;37.460;2023-01-25T01:31:20;100591.44;;;-0.49;100.00
58295;BME280;45705;55.592;37.460;2023-01-25T01:34:05;100583.94;;;-0.25;100.00
58295;BME280;45705;55.592;37.460;2023-01-25T01:36:31;100578.56;;;-0.38;100.00
58295;BME280;45705;55.592;37.460;2023-01-25T01:38:58;100572.44;;;-0.19;100.00
58295;BME280;45705;55.592;37.460;2023-01-25T01:41:24;100562.06;;;-0.49;100.00
58295;BME280;45705;55.592;37.460;2023-01-25T01:43:50;100559.22;;;-0.41;100.00
58295;BME280;45705;55.592;37.460;2023-01-25T01:46:33;100561.69;;;-0.39;100.00
58295;BME280;45705;55.592;37.460;2023-01-25T01:49:03;100555.47;;;-0.53;100.00
58295;BME280;45705;55.592;37.460;2023-01-25T01:54:06;100552.88;;;-0.26;100.00
58295;BME280;45705;55.592;37.460;2023-01-25T01:56:39;100552.06;;;-0.20;100.00
58295;BME280;45705;55.592;37.460;2023-01-25T01:59:08;100555.94;;;-0.43;100.00
58295;BME280;45705;55.592;37.460;2023-01-25T02:01:35;100544.81;;;-0.40;100.00
58295;BME280;45705;55.592;37.460;2023-01-25T02:04:01;100544.25;;;-0.22;100.00
58295;BME280;45705;55.592;37.460;2023-01-25T02:06:59;100546.06;;;-0.35;100.00
58295;BME280;45705;55.592;37.460;2023-01-25T02:09:28;100534.84;;;-0.72;100.00
58295;BME280;45705;55.592;37.460;2023-01-25T02:11:55;100541.91;;;-0.51;100.00
58295;BME280;45705;55.592;37.460;2023-01-25T02:14:22;100531.22;;;-0.58;100.00
58295;BME280;45705;55.592;37.460;2023-01-25T02:16:49;100536.34;;;-0.63;100.00
58295;BME280;45705;55.592;37.460;2023-01-25T02:19:43;100534.09;;;-0.60;100.00
58295;BME280;45705;55.592;37.460;2023-01-25T02:22:15;100531.66;;;-0.48;100.00
58295;BME280;45705;55.592;37.460;2023-01-25T02:24:48;100539.47;;;-0.46;100.00
58295;BME280;45705;55.592;37.460;2023-01-25T02:27:15;100545.16;;;-0.69;100.00
58295;BME280;45705;55.592;37.460;2023-01-25T02:29:42;100548.50;;;-0.54;100.00
58295;BME280;45705;55.592;37.460;2023-01-25T02:32:08;100548.50;;;-0.54;100.00
58295;BME280;45705;55.592;37.460;2023-01-25T02:34:34;100546.44;;;-0.52;100.00
58295;BME280;45705;55.592;37.460;2023-01-25T02:37:02;100543.34;;;-0.55;100.00
58295;BME280;45705;55.592;37.460;2023-01-25T02:39:28;100548.44;;;-0.67;100.00
58295;BME280;45705;55.592;37.460;2023-01-25T02:41:54;100548.44;;;-0.67;100.00
58295;BME280;45705;55.592;37.460;2023-01-25T02:44:26;100551.13;;;-0.67;100.00
58295;BME280;45705;55.592;37.460;2023-01-25T02:46:52;100546.84;;;-0.55;100.00
58295;BME280;45705;55.592;37.460;2023-01-25T02:49:19;100543.16;;;-0.54;100.00
58295;BME280;45705;55.592;37.460;2023-01-25T02:51:49;100527.69;;;-0.65;100.00
58295;BME280;45705;55.592;37.460;2023-01-25T02:54:17;100541.91;;;-0.58;100.00
58295;BME280;45705;55.592;37.460;2023-01-25T02:56:43;100532.66;;;-0.49;100.00
58295;BME280;45705;55.592;37.460;2023-01-25T02:59:10;100546.25;;;-0.44;100.00
58295;BME280;45705;55.592;37.460;2023-01-25T03:01:39;100554.66;;;-0.47;100.00
58295;BME280;45705;55.592;37.460;2023-01-25T03:04:06;100549.34;;;-0.33;100.00
58295;BME280;45705;55.592;37.460;2023-01-25T03:06:33;100554.72;;;-0.20;100.00
58295;BME280;45705;55.592;37.460;2023-01-25T03:09:00;100546.50;;;-0.38;100.00
58295;BME280;45705;55.592;37.460;2023-01-25T03:11:26;100539.47;;;-0.40;100.00
58295;BME280;45705;55.592;37.460;2023-01-25T03:13:52;100544.81;;;-0.40;100.00
58295;BME280;45705;55.592;37.460;2023-01-25T03:16:18;100548.81;;;-0.77;100.00
58295;BME280;45705;55.592;37.460;2023-01-25T03:18:44;100559.13;;;-0.67;100.00
58295;BME280;45705;55.592;37.460;2023-01-25T03:21:12;100549.75;;;-0.50;100.00
58295;BME280;45705;55.592;37.460;2023-01-25T03:23:38;100542.78;;;-0.37;100.00
58295;BME280;45705;55.592;37.460;2023-01-25T03:28:49;100527.88;;;-0.73;100.00
58295;BME280;45705;55.592;37.460;2023-01-25T03:31:16;100527.94;;;-0.60;100.00
58295;BME280;45705;55.592;37.460;2023-01-25T03:33:42;100523.38;;;-0.66;100.00
58295;BME280;45705;55.592;37.460;2023-01-25T03:36:08;100518.50;;;-0.56;100.00
58295;BME280;45705;55.592;37.460;2023-01-25T03:38:35;100507.41;;;-0.46;100.00
58295;BME280;45705;55.592;37.460;2023-01-25T03:41:02;100516.00;;;-0.57;100.00
58295;BME280;45705;55.592;37.460;2023-01-25T03:43:28;100525.50;;;-0.42;100.00
58295;BME280;45705;55.592;37.460;2023-01-25T03:45:57;100517.63;;;-0.70;100.00
58295;BME280;45705;55.592;37.460;2023-01-25T03:48:23;100517.00;;;-0.65;100.00
58295;BME280;45705;55.592;37.460;2023-01-25T03:50:53;100516.00;;;-0.51;100.00
58295;BME280;45705;55.592;37.460;2023-01-25T03:53:23;100526.50;;;-0.49;100.00
58295;BME280;45705;55.592;37.460;2023-01-25T03:56:06;100525.72;;;-0.36;100.00
58295;BME280;45705;55.592;37.460;2023-01-25T03:58:38;100530.59;;;-0.60;100.00
58295;BME280;45705;55.592;37.460;2023-01-25T04:01:06;100528.38;;;-0.50;100.00
58295;BME280;45705;55.592;37.460;2023-01-25T04:03:32;100530.38;;;-0.65;100.00
58295;BME280;45705;55.592;37.460;2023-01-25T04:05:59;100542.34;;;-0.48;100.00
58295;BME280;45705;55.592;37.460;2023-01-25T04:08:27;100540.28;;;-0.39;100.00
58295;BME280;45705;55.592;37.460;2023-01-25T04:10:55;100534.56;;;-0.43;100.00
58295;BME280;45705;55.592;37.460;2023-01-25T04:13:22;100537.81;;;-0.47;100.00
58295;BME280;45705;55.592;37.460;2023-01-25T04:15:49;100537.31;;;-0.77;100.00
58295;BME280;45705;55.592;37.460;2023-01-25T04:18:29;100537.44;;;-0.44;100.00
58295;BME280;45705;55.592;37.460;2023-01-25T04:20:56;100521.44;;;-0.86;100.00
58295;BME280;45705;55.592;37.460;2023-01-25T04:23:24;100526.69;;;-0.51;100.00
58295;BME280;45705;55.592;37.460;2023-01-25T04:25:58;100515.59;;;-0.61;100.00
58295;BME280;45705;55.592;37.460;2023-01-25T04:28:25;100513.56;;;-0.39;100.00
58295;BME280;45705;55.592;37.460;2023-01-25T04:30:55;100520.03;;;-0.82;100.00
58295;BME280;45705;55.592;37.460;2023-01-25T04:33:25;100485.06;;;-1.00;100.00
58295;BME280;45705;55.592;37.460;2023-01-25T04:35:51;100513.44;;;-0.92;100.00
58295;BME280;45705;55.592;37.460;2023-01-25T04:38:18;100520.50;;;-0.71;100.00
58295;BME280;45705;55.592;37.460;2023-01-25T04:40:44;100525.38;;;-0.82;100.00
58295;BME280;45705;55.592;37.460;2023-01-25T04:43:15;100516.78;;;-0.70;100.00
58295;BME280;45705;55.592;37.460;2023-01-25T04:45:42;100499.47;;;-0.88;100.00
58295;BME280;45705;55.592;37.460;2023-01-25T04:48:16;100509.56;;;-0.76;100.00
58295;BME280;45705;55.592;37.460;2023-01-25T04:50:48;100523.72;;;-0.83;100.00
58295;BME280;45705;55.592;37.460;2023-01-25T04:53:15;100538.09;;;-0.84;100.00
58295;BME280;45705;55.592;37.460;2023-01-25T04:55:44;100533.66;;;-0.63;100.00
58295;BME280;45705;55.592;37.460;2023-01-25T04:58:12;100534.91;;;-0.59;99.49
58295;BME280;45705;55.592;37.460;2023-01-25T05:00:39;100509.56;;;-0.76;98.77
58295;BME280;45705;55.592;37.460;2023-01-25T05:03:05;100534.94;;;-0.52;99.28
58295;BME280;45705;55.592;37.460;2023-01-25T05:05:31;100537.84;;;-0.41;98.86
58295;BME280;45705;55.592;37.460;2023-01-25T05:07:59;100537.16;;;-0.63;98.77
58295;BME280;45705;55.592;37.460;2023-01-25T05:10:27;100538.63;;;-0.47;98.68
58295;BME280;45705;55.592;37.460;2023-01-25T05:13:12;100540.72;;;-0.42;98.48
58295;BME280;45705;55.592;37.460;2023-01-25T05:15:38;100529.00;;;-0.41;98.76
58295;BME280;45705;55.592;37.460;2023-01-25T05:18:04;100536.19;;;-0.42;98.63
58295;BME280;45705;55.592;37.460;2023-01-25T05:20:31;100507.00;;;-0.50;97.51
58295;BME280;45705;55.592;37.460;2023-01-25T05:22:57;100530.66;;;-0.33;97.32
58295;BME280;45705;55.592;37.460;2023-01-25T05:25:23;100543.19;;;-0.34;97.20
58295;BME280;45705;55.592;37.460;2023-01-25T05:28:08;100541.38;;;-0.27;97.21
58295;BME280;45705;55.592;37.460;2023-01-25T05:30:54;100542.78;;;-0.44;97.52
58295;BME280;45705;55.592;37.460;2023-01-25T05:33:23;100531.63;;;-0.61;99.07
58295;BME280;45705;55.592;37.460;2023-01-25T05:35:49;100534.56;;;-0.43;98.92
58295;BME280;45705;55.592;37.460;2023-01-25T05:38:15;100540.53;;;-0.34;98.04
58295;BME280;45705;55.592;37.460;2023-01-25T05:40:41;100540.72;;;-0.35;96.92
58295;BME280;45705;55.592;37.460;2023-01-25T05:43:07;100532.09;;;-0.37;96.45
58295;BME280;45705;55.592;37.460;2023-01-25T05:45:33;100546.06;;;-0.35;96.45
58295;BME280;45705;55.592;37.460;2023-01-25T05:48:00;100549.31;;;-0.47;96.95
58295;BME280;45705;55.592;37.460;2023-01-25T05:50:26;100547.72;;;-0.34;95.99
58295;BME280;45705;55.592;37.460;2023-01-25T05:53:08;100535.19;;;-0.27;95.04
58295;BME280;45705;55.592;37.460;2023-01-25T05:55:34;100530.88;;;-0.22;93.68
58295;BME280;45705;55.592;37.460;2023-01-25T05:58:05;100508.56;;;-0.75;96.52
58295;BME280;45705;55.592;37.460;2023-01-25T06:00:31;100540.38;;;-0.74;98.25
58295;BME280;45705;55.592;37.460;2023-01-25T06:02:59;100528.66;;;-0.80;99.19
58295;BME280;45705;55.592;37.460;2023-01-25T06:05:25;100529.94;;;-0.69;99.26
58295;BME280;45705;55.592;37.460;2023-01-25T06:07:51;100533.94;;;-0.31;97.97
58295;BME280;45705;55.592;37.460;2023-01-25T06:10:18;100537.75;;;-0.67;98.50
58295;BME280;45705;55.592;37.460;2023-01-25T06:12:47;100531.59;;;-0.68;99.57
58295;BME280;45705;55.592;37.460;2023-01-25T06:15:13;100543.59;;;-0.98;100.00
58295;BME280;45705;55.592;37.460;2023-01-25T06:17:39;100542.97;;;-1.01;100.00
58295;BME280;45705;55.592;37.460;2023-01-25T06:20:25;100543.78;;;-1.00;100.00
58295;BME280;45705;55.592;37.460;2023-01-25T06:23:09;100540.78;;;-1.19;100.00
58295;BME280;45705;55.592;37.460;2023-01-25T06:25:34;100540.56;;;-0.89;100.00
58295;BME280;45705;55.592;37.460;2023-01-25T06:28:00;100536.03;;;-0.88;100.00
58295;BME280;45705;55.592;37.460;2023-01-25T06:30:26;100531.97;;;-0.77;100.00
58295;BME280;45705;55.592;37.460;2023-01-25T06:32:52;100528.38;;;-0.50;100.00
58295;BME280;45705;55.592;37.460;2023-01-25T06:35:17;100517.63;;;-0.63;99.38
58295;BME280;45705;55.592;37.460;2023-01-25T06:37:43;100530.22;;;-0.37;99.48
58295;BME280;45705;55.592;37.460;2023-01-25T06:40:10;100523.84;;;-0.56;100.00
58295;BME280;45705;55.592;37.460;2023-01-25T06:42:35;100535.13;;;-0.54;100.00
58295;BME280;45705;55.592;37.460;2023-01-25T06:45:01;100535.28;;;-0.62;100.00
58295;BME280;45705;55.592;37.460;2023-01-25T06:47:29;100494.19;;;-0.74;100.00
58295;BME280;45705;55.592;37.460;2023-01-25T06:49:55;100537.22;;;-0.36;100.00
58295;BME280;45705;55.592;37.460;2023-01-25T06:52:20;100543.97;;;-0.47;100.00
58295;BME280;45705;55.592;37.460;2023-01-25T06:54:46;100541.97;;;-0.31;99.73
58295;BME280;45705;55.592;37.460;2023-01-25T06:57:11;100543.03;;;-0.81;100.00
58295;BME280;45705;55.592;37.460;2023-01-25T06:59:37;100539.63;;;-0.61;100.00
58295;BME280;45705;55.592;37.460;2023-01-25T07:02:03;100545.22;;;-0.49;100.00
58295;BME280;45705;55.592;37.460;2023-01-25T07:04:29;100547.13;;;-0.23;100.00
58295;BME280;45705;55.592;37.460;2023-01-25T07:06:55;100539.06;;;-0.50;100.00
58295;BME280;45705;55.592;37.460;2023-01-25T07:09:20;100534.38;;;-0.34;99.46
58295;BME280;45705;55.592;37.460;2023-01-25T07:11:49;100543.97;;;-0.47;100.00
58295;BME280;45705;55.592;37.460;2023-01-25T07:14:15;100537.47;;;-0.24;99.39
58295;BME280;45705;55.592;37.460;2023-01-25T07:16:41;100534.38;;;-0.34;98.75
58295;BME280;45705;55.592;37.460;2023-01-25T07:19:10;100530.88;;;-0.28;99.06
58295;BME280;45705;55.592;37.460;2023-01-25T07:21:36;100526.34;;;-0.34;99.43
58295;BME280;45705;55.592;37.460;2023-01-25T07:24:03;100526.38;;;-0.01;98.19
58295;BME280;45705;55.592;37.460;2023-01-25T07:26:30;100528.81;;;-0.26;97.64
58295;BME280;45705;55.592;37.460;2023-01-25T07:28:57;100524.91;;;-0.30;100.00
58295;BME280;45705;55.592;37.460;2023-01-25T07:31:24;100516.09;;;-0.31;99.70
58295;BME280;45705;55.592;37.460;2023-01-25T07:33:55;100525.53;;;-0.28;99.60
58295;BME280;45705;55.592;37.460;2023-01-25T07:36:22;100525.13;;;-0.25;99.04
58295;BME280;45705;55.592;37.460;2023-01-25T07:38:51;100526.78;;;-0.11;99.50
58295;BME280;45705;55.592;37.460;2023-01-25T07:41:17;100529.88;;;0.13;97.86
58295;BME280;45705;55.592;37.460;2023-01-25T07:43:43;100524.75;;;0.18;97.60
58295;BME280;45705;55.592;37.460;2023-01-25T07:46:12;100527.22;;;0.39;95.99
58295;BME280;45705;55.592;37.460;2023-01-25T07:48:45;100533.59;;;0.12;97.17
58295;BME280;45705;55.592;37.460;2023-01-25T07:51:11;100519.75;;;-0.32;97.77
58295;BME280;45705;55.592;37.460;2023-01-25T07:53:42;100520.19;;;-0.08;98.81
58295;BME280;45705;55.592;37.460;2023-01-25T07:56:10;100529.91;;;0.06;97.66
58295;BME280;45705;55.592;37.460;2023-01-25T07:58:36;100525.59;;;0.12;96.53
58295;BME280;45705;55.592;37.460;2023-01-25T08:01:06;100516.91;;;0.36;95.70
58295;BME280;45705;55.592;37.460;2023-01-25T08:03:31;100517.56;;;0.12;94.85
58295;BME280;45705;55.592;37.460;2023-01-25T08:05:57;100488.97;;;-0.01;95.87
58295;BME280;45705;55.592;37.460;2023-01-25T08:08:23;100524.31;;;0.21;95.42
58295;BME280;45705;55.592;37.460;2023-01-25T08:10:48;100510.34;;;0.19;96.03
58295;BME280;45705;55.592;37.460;2023-01-25T08:13:14;100515.69;;;0.32;94.22
58295;BME280;45705;55.592;37.460;2023-01-25T08:15:40;100520.00;;;0.27;94.28
58295;BME280;45705;55.592;37.460;2023-01-25T08:18:06;100519.78;;;0.02;95.96
58295;BME280;45705;55.592;37.460;2023-01-25T08:20:31;100513.81;;;-0.14;96.05
58295;BME280;45705;55.592;37.460;2023-01-25T08:22:57;100515.69;;;0.19;95.67
58295;BME280;45705;55.592;37.460;2023-01-25T08:25:23;100508.69;;;0.11;94.36
58295;BME280;45705;55.592;37.460;2023-01-25T08:27:49;100510.56;;;0.11;93.71
58295;BME280;45705;55.592;37.460;2023-01-25T08:30:16;100513.63;;;-0.19;95.69
58295;BME280;45705;55.592;37.460;2023-01-25T08:32:42;100509.53;;;0.12;94.60
58295;BME280;45705;55.592;37.460;2023-01-25T08:35:08;100511.78;;;-0.25;94.90
58295;BME280;45705;55.592;37.460;2023-01-25T08:37:35;100516.91;;;-0.17;95.69
58295;BME280;45705;55.592;37.460;2023-01-25T08:40:00;100515.25;;;-0.18;95.39
58295;BME280;45705;55.592;37.460;2023-01-25T08:42:26;100510.53;;;0.17;94.57
58295;BME280;45705;55.592;37.460;2023-01-25T08:44:52;100510.78;;;0.16;94.61
58295;BME280;45705;55.592;37.460;2023-01-25T08:47:17;100509.31;;;0.07;94.76
58295;BME280;45705;55.592;37.460;2023-01-25T08:49:43;100495.75;;;0.22;94.79
58295;BME280;45705;55.592;37.460;2023-01-25T08:52:09;100493.50;;;-0.02;94.92
58295;BME280;45705;55.592;37.460;2023-01-25T08:54:39;100467.50;;;-0.61;96.62
58295;BME280;45705;55.592;37.460;2023-01-25T08:57:07;100490.53;;;-0.60;99.84
58295;BME280;45705;55.592;37.460;2023-01-25T08:59:33;100481.56;;;-0.19;98.26
58295;BME280;45705;55.592;37.460;2023-01-25T09:01:59;100474.75;;;-0.22;97.97
58295;BME280;45705;55.592;37.460;2023-01-25T09:04:24;100456.47;;;-0.18;97.22
58295;BME280;45705;55.592;37.460;2023-01-25T09:06:53;100472.94;;;-0.08;97.86
58295;BME280;45705;55.592;37.460;2023-01-25T09:09:20;100464.69;;;-0.13;97.64
58295;BME280;45705;55.592;37.460;2023-01-25T09:11:47;100457.69;;;-0.27;98.88
58295;BME280;45705;55.592;37.460;2023-01-25T09:14:12;100464.47;;;-0.18;99.37
58295;BME280;45705;55.592;37.460;2023-01-25T09:16:38;100453.56;;;0.04;97.32
58295;BME280;45705;55.592;37.460;2023-01-25T09:19:04;100453.56;;;-0.10;96.58
58295;BME280;45705;55.592;37.460;2023-01-25T09:21:30;100453.97;;;-0.20;98.09
58295;BME280;45705;55.592;37.460;2023-01-25T09:23:56;100453.38;;;-0.08;96.83
58295;BME280;45705;55.592;37.460;2023-01-25T09:26:23;100447.00;;;-0.41;98.78
58295;BME280;45705;55.592;37.460;2023-01-25T09:28:50;100451.94;;;-0.24;98.16
58295;BME280;45705;55.592;37.460;2023-01-25T09:31:18;100454.78;;;0.08;97.46
58295;BME280;45705;55.592;37.460;2023-01-25T09:34:04;100451.50;;;0.06;95.91
58295;BME280;45705;55.592;37.460;2023-01-25T09:36:29;100448.03;;;-0.15;95.67
58295;BME280;45705;55.592;37.460;2023-01-25T09:38:55;100448.63;;;-0.53;98.23
58295;BME280;45705;55.592;37.460;2023-01-25T09:46:48;100420.28;;;-0.34;97.24
58295;BME280;45705;55.592;37.460;2023-01-25T09:49:34;100417.59;;;-0.41;98.95
58295;BME280;45705;55.592;37.460;2023-01-25T09:54:45;100407.88;;;-0.82;100.00
58295;BME280;45705;55.592;37.460;2023-01-25T09:57:17;100404.66;;;-0.44;98.75
58295;BME280;45705;55.592;37.460;2023-01-25T09:59:47;100404.44;;;-0.49;98.76
58295;BME280;45705;55.592;37.460;2023-01-25T10:04:53;100405.47;;;-0.36;96.21
58295;BME280;45705;55.592;37.460;2023-01-25T10:07:33;100398.06;;;-0.28;93.79
58295;BME280;45705;55.592;37.460;2023-01-25T10:10:07;100384.72;;;-0.21;92.46
58295;BME280;45705;55.592;37.460;2023-01-25T10:12:36;100385.75;;;-0.29;92.15
58295;BME280;45705;55.592;37.460;2023-01-25T10:15:34;100379.56;;;-0.16;90.67
58295;BME280;45705;55.592;37.460;2023-01-25T10:20:59;100344.19;;;-0.18;91.54
58295;BME280;45705;55.592;37.460;2023-01-25T10:26:00;100332.56;;;0.28;87.86
58295;BME280;45705;55.592;37.460;2023-01-25T10:28:45;100364.28;;;0.18;86.39
58295;BME280;45705;55.592;37.460;2023-01-25T10:31:17;100366.53;;;0.21;83.48
58295;BME280;45705;55.592;37.460;2023-01-25T10:33:47;100365.16;;;-0.08;85.71
58295;BME280;45705;55.592;37.460;2023-01-25T10:36:15;100367.63;;;-0.20;84.97
58295;BME280;45705;55.592;37.460;2023-01-25T10:38:46;100372.97;;;0.00;85.77
58295;BME280;45705;55.592;37.460;2023-01-25T10:41:37;100365.09;;;0.18;84.26
58295;BME280;45705;55.592;37.460;2023-01-25T10:44:07;100364.97;;;0.52;82.96
58295;BME280;45705;55.592;37.460;2023-01-25T10:47:14;100362.78;;;0.35;82.99
58295;BME280;45705;55.592;37.460;2023-01-25T10:49:50;100356.84;;;0.27;83.89
58295;BME280;45705;55.592;37.460;2023-01-25T10:52:24;100360.94;;;0.36;83.90
58295;BME280;45705;55.592;37.460;2023-01-25T10:55:13;100352.25;;;0.41;83.33
58295;BME280;45705;55.592;37.460;2023-01-25T10:57:57;100351.16;;;0.03;86.37
58295;BME280;45705;55.592;37.460;2023-01-25T11:02:52;100344.31;;;0.21;85.27
58295;BME280;45705;55.592;37.460;2023-01-25T11:07:50;100340.78;;;0.27;84.94
58295;BME280;45705;55.592;37.460;2023-01-25T11:18:25;100317.31;;;0.35;86.01
58295;BME280;45705;55.592;37.460;2023-01-25T11:23:29;100296.28;;;-0.13;86.82
58295;BME280;45705;55.592;37.460;2023-01-25T11:26:22;100321.16;;;-0.12;88.92
58295;BME280;45705;55.592;37.460;2023-01-25T11:28:48;100312.13;;;-0.18;89.68
58295;BME280;45705;55.592;37.460;2023-01-25T11:31:19;100313.75;;;-0.04;88.22
58295;BME280;45705;55.592;37.460;2023-01-25T11:33:46;100315.91;;;0.26;86.17
58295;BME280;45705;55.592;37.460;2023-01-25T11:42:26;100295.91;;;0.35;83.33
58295;BME280;45705;55.592;37.460;2023-01-25T11:45:25;100294.69;;;0.31;83.66
58295;BME280;45705;55.592;37.460;2023-01-25T11:53:29;100286.47;;;0.26;82.82
58295;BME280;45705;55.592;37.460;2023-01-25T12:02:04;100282.88;;;-0.06;84.69
58295;BME280;45705;55.592;37.460;2023-01-25T12:12:23;100289.69;;;-0.04;84.78
58295;BME280;45705;55.592;37.460;2023-01-25T12:23:35;100278.38;;;-0.06;87.16
58295;BME280;45705;55.592;37.460;2023-01-25T12:26:27;100280.66;;;-0.16;87.53
58295;BME280;45705;55.592;37.460;2023-01-25T12:31:26;100283.31;;;-0.16;87.98
58295;BME280;45705;55.592;37.460;2023-01-25T12:34:02;100282.13;;;-0.27;88.11
58295;BME280;45705;55.592;37.460;2023-01-25T12:36:34;100277.13;;;-0.10;86.97
58295;BME280;45705;55.592;37.460;2023-01-25T12:44:29;100261.97;;;-0.29;88.73
58295;BME280;45705;55.592;37.460;2023-01-25T12:49:37;100265.22;;;-0.14;88.55
58295;BME280;45705;55.592;37.460;2023-01-25T12:52:23;100267.44;;;0.03;88.61
58295;BME280;45705;55.592;37.460;2023-01-25T12:54:54;100254.03;;;0.09;87.52
58295;BME280;45705;55.592;37.460;2023-01-25T12:57:46;100250.56;;;0.09;88.23
58295;BME280;45705;55.592;37.460;2023-01-25T13:01:01;100248.25;;;0.19;88.39
58295;BME280;45705;55.592;37.460;2023-01-25T13:03:43;100243.56;;;0.08;88.58
58295;BME280;45705;55.592;37.460;2023-01-25T13:11:39;100237.75;;;-0.34;90.93
58295;BME280;45705;55.592;37.460;2023-01-25T13:16:44;100236.03;;;-0.09;89.41
58295;BME280;45705;55.592;37.460;2023-01-25T13:21:58;100235.66;;;-0.19;90.54
58295;BME280;45705;55.592;37.460;2023-01-25T13:24:25;100234.47;;;-0.36;91.92
58295;BME280;45705;55.592;37.460;2023-01-25T13:32:11;100225.13;;;-0.14;91.73
58295;BME280;45705;55.592;37.460;2023-01-25T13:37:23;100221.84;;;-0.16;91.49
58295;BME280;45705;55.592;37.460;2023-01-25T13:39:51;100218.44;;;-0.36;93.02
58295;BME280;45705;55.592;37.460;2023-01-25T13:42:19;100214.69;;;-0.22;92.05
58295;BME280;45705;55.592;37.460;2023-01-25T13:44:51;100205.28;;;-0.45;93.11
58295;BME280;45705;55.592;37.460;2023-01-25T13:47:31;100197.50;;;-0.53;93.17
58295;BME280;45705;55.592;37.460;2023-01-25T13:53:01;100187.03;;;-0.48;93.77
58295;BME280;45705;55.592;37.460;2023-01-25T13:55:29;100184.75;;;-0.51;93.99
58295;BME280;45705;55.592;37.460;2023-01-25T13:58:22;100172.69;;;-0.60;93.29
58295;BME280;45705;55.592;37.460;2023-01-25T14:00:52;100175.34;;;-0.60;95.05
58295;BME280;45705;55.592;37.460;2023-01-25T14:03:22;100148.25;;;-0.70;95.20
58295;BME280;45705;55.592;37.460;2023-01-25T14:05:50;100168.38;;;-0.68;94.99
58295;BME280;45705;55.592;37.460;2023-01-25T14:08:18;100153.09;;;-0.47;94.92
58295;BME280;45705;55.592;37.460;2023-01-25T14:10:46;100148.94;;;-0.30;93.19
58295;BME280;45705;55.592;37.460;2023-01-25T14:13:13;100154.75;;;-0.53;94.10
58295;BME280;45705;55.592;37.460;2023-01-25T14:15:39;100151.47;;;-0.48;94.79
58295;BME280;45705;55.592;37.460;2023-01-25T14:18:16;100147.84;;;-0.67;94.69
58295;BME280;45705;55.592;37.460;2023-01-25T14:20:45;100152.09;;;-0.53;95.46
58295;BME280;45705;55.592;37.460;2023-01-25T14:23:29;100156.41;;;-0.52;95.02
58295;BME280;45705;55.592;37.460;2023-01-25T14:25:57;100149.88;;;-0.56;94.78
58295;BME280;45705;55.592;37.460;2023-01-25T14:28:27;100159.34;;;-0.60;95.29
58295;BME280;45705;55.592;37.460;2023-01-25T14:30:58;100158.53;;;-0.81;95.56
58295;BME280;45705;55.592;37.460;2023-01-25T14:33:32;100154.88;;;-0.93;97.62
58295;BME280;45705;55.592;37.460;2023-01-25T14:36:12;100144.09;;;-0.53;95.33
58295;BME280;45705;55.592;37.460;2023-01-25T14:38:39;100137.72;;;-0.52;95.31
58295;BME280;45705;55.592;37.460;2023-01-25T14:41:11;100140.00;;;-0.62;96.10